sensor_id;sensor_type;location;lat;lon;timestamp;P1;durP1;ratioP1;P2;durP2;ratioP2
54599;SDS011;40500;51.084;16.958;2023-05-28T00:02:07;2.30;;;1.80;;
54599;SDS011;40500;51.084;16.958;2023-05-28T00:04:35;2.20;;;1.90;;
54599;SDS011;40500;51.084;16.958;2023-05-28T00:07:04;5.00;;;2.40;;
54599;SDS011;40500;51.084;16.958;2023-05-28T00:09:34;4.20;;;2.00;;
54599;SDS011;40500;51.084;16.958;2023-05-28T00:12:05;5.00;;;2.70;;
54599;SDS011;40500;51.084;16.958;2023-05-28T00:14:36;3.40;;;2.20;;
54599;SDS011;40500;51.084;16.958;2023-05-28T00:17:04;3.20;;;2.00;;
54599;SDS011;40500;51.084;16.958;2023-05-28T00:19:37;6.10;;;2.20;;
54599;SDS011;40500;51.084;16.958;2023-05-28T00:22:07;4.10;;;2.10;;
54599;SDS011;40500;51.084;16.958;2023-05-28T00:24:43;2.30;;;1.70;;
54599;SDS011;40500;51.084;16.958;2023-05-28T00:27:15;6.80;;;2.60;;
54599;SDS011;40500;51.084;16.958;2023-05-28T00:29:44;6.50;;;1.90;;
54599;SDS011;40500;51.084;16.958;2023-05-28T00:32:19;5.00;;;2.40;;
54599;SDS011;40500;51.084;16.958;2023-05-28T00:34:48;4.10;;;1.90;;
54599;SDS011;40500;51.084;16.958;2023-05-28T00:37:17;3.00;;;2.40;;
54599;SDS011;40500;51.084;16.958;2023-05-28T00:39:46;2.70;;;1.80;;
54599;SDS011;40500;51.084;16.958;2023-05-28T00:42:16;2.20;;;1.90;;
54599;SDS011;40500;51.084;16.958;2023-05-28T00:44:47;3.60;;;2.20;;
54599;SDS011;40500;51.084;16.958;2023-05-28T00:47:17;3.80;;;2.10;;
54599;SDS011;40500;51.084;16.958;2023-05-28T00:49:47;3.60;;;2.20;;
54599;SDS011;40500;51.084;16.958;2023-05-28T00:52:30;3.30;;;1.90;;
54599;SDS011;40500;51.084;16.958;2023-05-28T00:54:59;3.50;;;2.00;;
54599;SDS011;40500;51.084;16.958;2023-05-28T00:57:29;2.90;;;2.00;;
54599;SDS011;40500;51.084;16.958;2023-05-28T01:00:04;3.30;;;1.90;;
54599;SDS011;40500;51.084;16.958;2023-05-28T01:02:38;2.70;;;2.00;;
54599;SDS011;40500;51.084;16.958;2023-05-28T01:05:07;3.00;;;2.20;;
54599;SDS011;40500;51.084;16.958;2023-05-28T01:07:37;4.40;;;2.20;;
54599;SDS011;40500;51.084;16.958;2023-05-28T01:10:09;2.90;;;1.90;;
54599;SDS011;40500;51.084;16.958;2023-05-28T01:12:41;3.80;;;2.00;;
54599;SDS011;40500;51.084;16.958;2023-05-28T01:15:25;2.90;;;2.30;;
54599;SDS011;40500;51.084;16.958;2023-05-28T01:18:00;3.30;;;2.10;;
54599;SDS011;40500;51.084;16.958;2023-05-28T01:20:34;4.20;;;2.20;;
54599;SDS011;40500;51.084;16.958;2023-05-28T01:23:05;4.00;;;2.20;;
54599;SDS011;40500;51.084;16.958;2023-05-28T01:25:44;2.10;;;1.80;;
54599;SDS011;40500;51.084;16.958;2023-05-28T01:28:20;5.70;;;2.20;;
54599;SDS011;40500;51.084;16.958;2023-05-28T01:30:49;3.50;;;1.80;;
54599;SDS011;40500;51.084;16.958;2023-05-28T01:33:21;3.60;;;2.20;;
54599;SDS011;40500;51.084;16.958;2023-05-28T01:35:51;8.00;;;2.40;;
54599;SDS011;40500;51.084;16.958;2023-05-28T01:38:23;4.30;;;2.00;;
54599;SDS011;40500;51.084;16.958;2023-05-28T01:40:59;2.80;;;2.00;;
54599;SDS011;40500;51.084;16.958;2023-05-28T01:43:29;5.70;;;2.30;;
54599;SDS011;40500;51.084;16.958;2023-05-28T01:45:59;3.50;;;2.30;;
54599;SDS011;40500;51.084;16.958;2023-05-28T01:48:29;2.30;;;1.90;;
54599;SDS011;40500;51.084;16.958;2023-05-28T01:50:57;3.80;;;2.20;;
54599;SDS011;40500;51.084;16.958;2023-05-28T01:53:26;3.70;;;2.30;;
54599;SDS011;40500;51.084;16.958;2023-05-28T01:55:56;5.10;;;2.00;;
54599;SDS011;40500;51.084;16.958;2023-05-28T01:58:28;2.30;;;1.80;;
54599;SDS011;40500;51.084;16.958;2023-05-28T02:01:01;4.00;;;2.30;;
54599;SDS011;40500;51.084;16.958;2023-05-28T02:03:34;4.10;;;2.30;;
54599;SDS011;40500;51.084;16.958;2023-05-28T02:06:03;3.40;;;2.20;;
54599;SDS011;40500;51.084;16.958;2023-05-28T02:08:37;5.50;;;3.40;;
54599;SDS011;40500;51.084;16.958;2023-05-28T02:11:09;2.90;;;2.20;;
54599;SDS011;40500;51.084;16.958;2023-05-28T02:13:37;3.30;;;2.30;;
54599;SDS011;40500;51.084;16.958;2023-05-28T02:16:06;6.10;;;2.50;;
54599;SDS011;40500;51.084;16.958;2023-05-28T02:18:37;4.00;;;2.50;;
54599;SDS011;40500;51.084;16.958;2023-05-28T02:21:22;7.70;;;2.50;;
54599;SDS011;40500;51.084;16.958;2023-05-28T02:23:51;3.50;;;2.20;;
54599;SDS011;40500;51.084;16.958;2023-05-28T02:26:23;3.50;;;2.00;;
54599;SDS011;40500;51.084;16.958;2023-05-28T02:29:11;3.90;;;2.30;;
54599;SDS011;40500;51.084;16.958;2023-05-28T02:31:41;4.00;;;2.50;;
54599;SDS011;40500;51.084;16.958;2023-05-28T02:34:13;6.00;;;2.50;;
54599;SDS011;40500;51.084;16.958;2023-05-28T02:36:45;3.50;;;2.40;;
54599;SDS011;40500;51.084;16.958;2023-05-28T02:39:16;3.10;;;2.00;;
54599;SDS011;40500;51.084;16.958;2023-05-28T02:41:47;3.20;;;2.40;;
54599;SDS011;40500;51.084;16.958;2023-05-28T02:44:19;6.10;;;2.50;;
54599;SDS011;40500;51.084;16.958;2023-05-28T02:46:48;6.00;;;2.40;;
54599;SDS011;40500;51.084;16.958;2023-05-28T02:49:21;2.70;;;2.10;;
54599;SDS011;40500;51.084;16.958;2023-05-28T02:51:55;3.40;;;2.60;;
54599;SDS011;40500;51.084;16.958;2023-05-28T02:54:28;4.40;;;2.30;;
54599;SDS011;40500;51.084;16.958;2023-05-28T02:56:55;3.60;;;2.40;;
54599;SDS011;40500;51.084;16.958;2023-05-28T02:59:27;4.40;;;2.50;;
54599;SDS011;40500;51.084;16.958;2023-05-28T03:01:59;4.70;;;2.50;;
54599;SDS011;40500;51.084;16.958;2023-05-28T03:04:35;2.30;;;2.10;;
54599;SDS011;40500;51.084;16.958;2023-05-28T03:07:05;6.30;;;2.50;;
54599;SDS011;40500;51.084;16.958;2023-05-28T03:09:47;3.80;;;2.40;;
54599;SDS011;40500;51.084;16.958;2023-05-28T03:12:23;4.80;;;2.50;;
54599;SDS011;40500;51.084;16.958;2023-05-28T03:14:54;2.50;;;2.00;;
54599;SDS011;40500;51.084;16.958;2023-05-28T03:17:22;5.60;;;2.60;;
54599;SDS011;40500;51.084;16.958;2023-05-28T03:19:52;2.60;;;1.90;;
54599;SDS011;40500;51.084;16.958;2023-05-28T03:22:35;3.60;;;2.50;;
54599;SDS011;40500;51.084;16.958;2023-05-28T03:25:10;3.00;;;2.40;;
54599;SDS011;40500;51.084;16.958;2023-05-28T03:27:44;3.30;;;2.60;;
54599;SDS011;40500;51.084;16.958;2023-05-28T03:30:12;5.20;;;2.50;;
54599;SDS011;40500;51.084;16.958;2023-05-28T03:32:48;3.90;;;2.20;;
54599;SDS011;40500;51.084;16.958;2023-05-28T03:35:20;3.80;;;2.40;;
54599;SDS011;40500;51.084;16.958;2023-05-28T03:37:53;4.00;;;2.40;;
54599;SDS011;40500;51.084;16.958;2023-05-28T03:40:21;3.90;;;2.30;;
54599;SDS011;40500;51.084;16.958;2023-05-28T03:42:52;2.90;;;2.00;;
54599;SDS011;40500;51.084;16.958;2023-05-28T03:45:20;5.90;;;2.40;;
54599;SDS011;40500;51.084;16.958;2023-05-28T03:47:52;2.90;;;2.40;;
54599;SDS011;40500;51.084;16.958;2023-05-28T03:50:22;4.20;;;2.70;;
54599;SDS011;40500;51.084;16.958;2023-05-28T03:52:57;3.50;;;2.40;;
54599;SDS011;40500;51.084;16.958;2023-05-28T03:55:28;3.10;;;2.50;;
54599;SDS011;40500;51.084;16.958;2023-05-28T03:57:57;3.30;;;2.40;;
54599;SDS011;40500;51.084;16.958;2023-05-28T04:00:29;3.80;;;2.60;;
54599;SDS011;40500;51.084;16.958;2023-05-28T04:02:59;2.60;;;2.20;;
54599;SDS011;40500;51.084;16.958;2023-05-28T04:05:30;3.60;;;2.70;;
54599;SDS011;40500;51.084;16.958;2023-05-28T04:08:00;2.90;;;2.40;;
54599;SDS011;40500;51.084;16.958;2023-05-28T04:10:29;5.10;;;2.90;;
54599;SDS011;40500;51.084;16.958;2023-05-28T04:12:59;3.10;;;2.40;;
54599;SDS011;40500;51.084;16.958;2023-05-28T04:15:29;5.60;;;2.60;;
54599;SDS011;40500;51.084;16.958;2023-05-28T04:17:56;5.40;;;3.50;;
54599;SDS011;40500;51.084;16.958;2023-05-28T04:20:24;3.70;;;2.80;;
54599;SDS011;40500;51.084;16.958;2023-05-28T04:22:53;7.00;;;3.70;;
54599;SDS011;40500;51.084;16.958;2023-05-28T04:25:23;6.60;;;4.50;;
54599;SDS011;40500;51.084;16.958;2023-05-28T04:27:53;12.20;;;5.80;;
54599;SDS011;40500;51.084;16.958;2023-05-28T04:30:26;11.30;;;6.50;;
54599;SDS011;40500;51.084;16.958;2023-05-28T04:33:04;12.80;;;7.80;;
54599;SDS011;40500;51.084;16.958;2023-05-28T04:35:36;17.80;;;9.40;;
54599;SDS011;40500;51.084;16.958;2023-05-28T04:38:05;14.90;;;9.00;;
54599;SDS011;40500;51.084;16.958;2023-05-28T04:40:37;17.20;;;8.90;;
54599;SDS011;40500;51.084;16.958;2023-05-28T04:43:18;13.40;;;8.10;;
54599;SDS011;40500;51.084;16.958;2023-05-28T04:45:48;15.00;;;7.00;;
54599;SDS011;40500;51.084;16.958;2023-05-28T04:48:24;11.90;;;6.60;;
54599;SDS011;40500;51.084;16.958;2023-05-28T04:50:54;10.30;;;5.50;;
54599;SDS011;40500;51.084;16.958;2023-05-28T04:53:31;7.70;;;3.70;;
54599;SDS011;40500;51.084;16.958;2023-05-28T04:56:02;4.90;;;3.10;;
54599;SDS011;40500;51.084;16.958;2023-05-28T04:58:41;4.00;;;2.40;;
54599;SDS011;40500;51.084;16.958;2023-05-28T05:01:13;9.20;;;3.10;;
54599;SDS011;40500;51.084;16.958;2023-05-28T05:03:45;4.10;;;2.60;;
54599;SDS011;40500;51.084;16.958;2023-05-28T05:06:16;3.10;;;2.20;;
54599;SDS011;40500;51.084;16.958;2023-05-28T05:08:44;3.90;;;2.70;;
54599;SDS011;40500;51.084;16.958;2023-05-28T05:11:19;6.90;;;2.40;;
54599;SDS011;40500;51.084;16.958;2023-05-28T05:13:48;5.30;;;2.30;;
54599;SDS011;40500;51.084;16.958;2023-05-28T05:16:17;6.00;;;2.50;;
54599;SDS011;40500;51.084;16.958;2023-05-28T05:18:46;3.70;;;2.30;;
54599;SDS011;40500;51.084;16.958;2023-05-28T05:21:17;6.00;;;2.40;;
54599;SDS011;40500;51.084;16.958;2023-05-28T05:23:51;5.00;;;2.40;;
54599;SDS011;40500;51.084;16.958;2023-05-28T05:26:19;5.20;;;2.40;;
54599;SDS011;40500;51.084;16.958;2023-05-28T05:28:47;4.60;;;2.60;;
54599;SDS011;40500;51.084;16.958;2023-05-28T05:31:16;8.70;;;2.70;;
54599;SDS011;40500;51.084;16.958;2023-05-28T05:33:45;4.00;;;2.20;;
54599;SDS011;40500;51.084;16.958;2023-05-28T05:36:35;5.10;;;2.40;;
54599;SDS011;40500;51.084;16.958;2023-05-28T05:39:25;3.20;;;2.20;;
54599;SDS011;40500;51.084;16.958;2023-05-28T05:42:24;4.40;;;2.50;;
54599;SDS011;40500;51.084;16.958;2023-05-28T05:44:54;3.10;;;2.30;;
54599;SDS011;40500;51.084;16.958;2023-05-28T05:47:21;3.10;;;2.20;;
54599;SDS011;40500;51.084;16.958;2023-05-28T05:49:50;6.90;;;2.60;;
54599;SDS011;40500;51.084;16.958;2023-05-28T05:52:18;3.00;;;2.10;;
54599;SDS011;40500;51.084;16.958;2023-05-28T05:54:48;4.00;;;2.50;;
54599;SDS011;40500;51.084;16.958;2023-05-28T05:57:19;4.50;;;2.00;;
54599;SDS011;40500;51.084;16.958;2023-05-28T05:59:49;3.70;;;2.70;;
54599;SDS011;40500;51.084;16.958;2023-05-28T06:02:17;3.80;;;2.50;;
54599;SDS011;40500;51.084;16.958;2023-05-28T06:04:47;3.90;;;2.60;;
54599;SDS011;40500;51.084;16.958;2023-05-28T06:07:36;3.60;;;2.20;;
54599;SDS011;40500;51.084;16.958;2023-05-28T06:10:17;5.60;;;2.50;;
54599;SDS011;40500;51.084;16.958;2023-05-28T06:12:45;5.80;;;2.50;;
54599;SDS011;40500;51.084;16.958;2023-05-28T06:15:12;2.90;;;2.20;;
54599;SDS011;40500;51.084;16.958;2023-05-28T06:17:40;6.60;;;2.10;;
54599;SDS011;40500;51.084;16.958;2023-05-28T06:20:10;5.30;;;2.40;;
54599;SDS011;40500;51.084;16.958;2023-05-28T06:22:38;10.40;;;2.30;;
54599;SDS011;40500;51.084;16.958;2023-05-28T06:25:06;4.50;;;2.50;;
54599;SDS011;40500;51.084;16.958;2023-05-28T06:27:35;4.00;;;2.40;;
54599;SDS011;40500;51.084;16.958;2023-05-28T06:30:03;6.60;;;2.10;;
54599;SDS011;40500;51.084;16.958;2023-05-28T06:32:32;8.30;;;2.60;;
54599;SDS011;40500;51.084;16.958;2023-05-28T06:35:01;4.20;;;2.10;;
54599;SDS011;40500;51.084;16.958;2023-05-28T06:37:30;4.30;;;2.10;;
54599;SDS011;40500;51.084;16.958;2023-05-28T06:39:58;3.80;;;2.40;;
54599;SDS011;40500;51.084;16.958;2023-05-28T06:42:26;5.00;;;2.70;;
54599;SDS011;40500;51.084;16.958;2023-05-28T06:45:08;4.60;;;2.60;;
54599;SDS011;40500;51.084;16.958;2023-05-28T06:47:39;2.70;;;2.10;;
54599;SDS011;40500;51.084;16.958;2023-05-28T06:50:08;3.60;;;2.50;;
54599;SDS011;40500;51.084;16.958;2023-05-28T06:52:38;3.90;;;2.60;;
54599;SDS011;40500;51.084;16.958;2023-05-28T06:55:07;5.90;;;2.30;;
54599;SDS011;40500;51.084;16.958;2023-05-28T06:57:38;3.90;;;2.20;;
54599;SDS011;40500;51.084;16.958;2023-05-28T07:00:14;4.30;;;2.20;;
54599;SDS011;40500;51.084;16.958;2023-05-28T07:02:52;2.90;;;1.80;;
54599;SDS011;40500;51.084;16.958;2023-05-28T07:05:34;5.60;;;1.90;;
54599;SDS011;40500;51.084;16.958;2023-05-28T07:08:06;3.60;;;2.30;;
54599;SDS011;40500;51.084;16.958;2023-05-28T07:10:34;2.90;;;1.90;;
54599;SDS011;40500;51.084;16.958;2023-05-28T07:13:05;3.80;;;1.90;;
54599;SDS011;40500;51.084;16.958;2023-05-28T07:15:33;3.10;;;1.60;;
54599;SDS011;40500;51.084;16.958;2023-05-28T07:18:05;2.70;;;1.80;;
54599;SDS011;40500;51.084;16.958;2023-05-28T07:20:32;2.80;;;1.50;;
54599;SDS011;40500;51.084;16.958;2023-05-28T07:23:12;4.80;;;1.90;;
54599;SDS011;40500;51.084;16.958;2023-05-28T07:25:41;5.10;;;2.20;;
54599;SDS011;40500;51.084;16.958;2023-05-28T07:28:24;2.90;;;1.40;;
54599;SDS011;40500;51.084;16.958;2023-05-28T07:30:52;4.00;;;1.70;;
54599;SDS011;40500;51.084;16.958;2023-05-28T07:33:19;6.60;;;2.00;;
54599;SDS011;40500;51.084;16.958;2023-05-28T07:35:48;6.70;;;1.80;;
54599;SDS011;40500;51.084;16.958;2023-05-28T07:38:17;2.70;;;1.40;;
54599;SDS011;40500;51.084;16.958;2023-05-28T07:40:49;5.30;;;2.00;;
54599;SDS011;40500;51.084;16.958;2023-05-28T07:43:26;3.50;;;1.50;;
54599;SDS011;40500;51.084;16.958;2023-05-28T07:45:57;4.10;;;1.50;;
54599;SDS011;40500;51.084;16.958;2023-05-28T07:48:30;3.30;;;1.50;;
54599;SDS011;40500;51.084;16.958;2023-05-28T07:51:07;1.90;;;1.10;;
54599;SDS011;40500;51.084;16.958;2023-05-28T07:53:41;2.40;;;1.40;;
54599;SDS011;40500;51.084;16.958;2023-05-28T07:56:14;3.10;;;1.60;;
54599;SDS011;40500;51.084;16.958;2023-05-28T07:58:43;2.80;;;1.70;;
54599;SDS011;40500;51.084;16.958;2023-05-28T08:01:15;1.90;;;1.30;;
54599;SDS011;40500;51.084;16.958;2023-05-28T08:03:43;5.90;;;1.40;;
54599;SDS011;40500;51.084;16.958;2023-05-28T08:06:27;8.50;;;1.40;;
54599;SDS011;40500;51.084;16.958;2023-05-28T08:08:55;2.30;;;1.30;;
54599;SDS011;40500;51.084;16.958;2023-05-28T08:11:24;6.10;;;1.40;;
54599;SDS011;40500;51.084;16.958;2023-05-28T08:13:52;1.50;;;0.90;;
54599;SDS011;40500;51.084;16.958;2023-05-28T08:16:20;2.60;;;1.40;;
54599;SDS011;40500;51.084;16.958;2023-05-28T08:19:03;2.90;;;0.90;;
54599;SDS011;40500;51.084;16.958;2023-05-28T08:21:31;2.60;;;1.40;;
54599;SDS011;40500;51.084;16.958;2023-05-28T08:24:00;1.50;;;1.20;;
54599;SDS011;40500;51.084;16.958;2023-05-28T08:26:29;4.50;;;1.00;;
54599;SDS011;40500;51.084;16.958;2023-05-28T08:29:00;3.60;;;1.10;;
54599;SDS011;40500;51.084;16.958;2023-05-28T08:31:31;1.60;;;1.00;;
54599;SDS011;40500;51.084;16.958;2023-05-28T08:34:10;4.00;;;1.30;;
54599;SDS011;40500;51.084;16.958;2023-05-28T08:36:38;1.70;;;1.30;;
54599;SDS011;40500;51.084;16.958;2023-05-28T08:39:09;2.80;;;1.00;;
54599;SDS011;40500;51.084;16.958;2023-05-28T08:41:38;5.50;;;1.30;;
54599;SDS011;40500;51.084;16.958;2023-05-28T08:44:06;1.70;;;1.30;;
54599;SDS011;40500;51.084;16.958;2023-05-28T08:46:36;2.30;;;1.30;;
54599;SDS011;40500;51.084;16.958;2023-05-28T08:49:26;2.10;;;1.50;;
54599;SDS011;40500;51.084;16.958;2023-05-28T08:51:59;1.60;;;1.00;;
54599;SDS011;40500;51.084;16.958;2023-05-28T08:54:30;2.40;;;1.00;;
54599;SDS011;40500;51.084;16.958;2023-05-28T08:57:06;1.50;;;1.00;;
54599;SDS011;40500;51.084;16.958;2023-05-28T08:59:43;6.00;;;1.10;;
54599;SDS011;40500;51.084;16.958;2023-05-28T09:02:12;2.40;;;1.40;;
54599;SDS011;40500;51.084;16.958;2023-05-28T09:04:41;3.40;;;1.20;;
54599;SDS011;40500;51.084;16.958;2023-05-28T09:07:13;4.60;;;1.10;;
54599;SDS011;40500;51.084;16.958;2023-05-28T09:09:53;3.60;;;1.30;;
54599;SDS011;40500;51.084;16.958;2023-05-28T09:12:24;5.50;;;1.50;;
54599;SDS011;40500;51.084;16.958;2023-05-28T09:14:57;3.00;;;1.40;;
54599;SDS011;40500;51.084;16.958;2023-05-28T09:17:35;2.00;;;1.00;;
54599;SDS011;40500;51.084;16.958;2023-05-28T09:20:10;3.60;;;1.10;;
54599;SDS011;40500;51.084;16.958;2023-05-28T09:22:40;4.70;;;1.10;;
54599;SDS011;40500;51.084;16.958;2023-05-28T09:25:29;3.90;;;1.70;;
54599;SDS011;40500;51.084;16.958;2023-05-28T09:28:06;2.00;;;1.20;;
54599;SDS011;40500;51.084;16.958;2023-05-28T09:30:34;5.50;;;1.20;;
54599;SDS011;40500;51.084;16.958;2023-05-28T09:33:03;1.80;;;1.00;;
54599;SDS011;40500;51.084;16.958;2023-05-28T09:35:36;2.10;;;1.20;;
54599;SDS011;40500;51.084;16.958;2023-05-28T09:38:04;2.90;;;1.20;;
54599;SDS011;40500;51.084;16.958;2023-05-28T09:40:37;2.50;;;1.30;;
54599;SDS011;40500;51.084;16.958;2023-05-28T09:43:08;4.40;;;0.90;;
54599;SDS011;40500;51.084;16.958;2023-05-28T09:45:36;3.50;;;1.10;;
54599;SDS011;40500;51.084;16.958;2023-05-28T09:48:04;3.30;;;1.20;;
54599;SDS011;40500;51.084;16.958;2023-05-28T09:50:32;3.50;;;1.10;;
54599;SDS011;40500;51.084;16.958;2023-05-28T09:53:03;4.60;;;1.10;;
54599;SDS011;40500;51.084;16.958;2023-05-28T09:55:36;2.90;;;1.20;;
54599;SDS011;40500;51.084;16.958;2023-05-28T09:58:05;1.40;;;1.20;;
54599;SDS011;40500;51.084;16.958;2023-05-28T10:00:34;3.60;;;1.10;;
54599;SDS011;40500;51.084;16.958;2023-05-28T10:03:11;9.30;;;1.30;;
54599;SDS011;40500;51.084;16.958;2023-05-28T10:05:44;1.60;;;1.10;;
54599;SDS011;40500;51.084;16.958;2023-05-28T10:08:15;4.40;;;0.90;;
54599;SDS011;40500;51.084;16.958;2023-05-28T10:10:49;2.50;;;0.90;;
54599;SDS011;40500;51.084;16.958;2023-05-28T10:13:19;2.70;;;1.20;;
54599;SDS011;40500;51.084;16.958;2023-05-28T10:15:48;2.80;;;1.20;;
54599;SDS011;40500;51.084;16.958;2023-05-28T10:18:17;1.50;;;0.80;;
54599;SDS011;40500;51.084;16.958;2023-05-28T10:20:46;4.40;;;1.40;;
54599;SDS011;40500;51.084;16.958;2023-05-28T10:23:13;6.80;;;1.00;;
54599;SDS011;40500;51.084;16.958;2023-05-28T10:25:42;3.50;;;1.00;;
54599;SDS011;40500;51.084;16.958;2023-05-28T10:28:13;5.60;;;1.20;;
54599;SDS011;40500;51.084;16.958;2023-05-28T10:30:41;3.60;;;1.10;;
54599;SDS011;40500;51.084;16.958;2023-05-28T10:33:11;2.80;;;1.00;;
54599;SDS011;40500;51.084;16.958;2023-05-28T10:35:50;1.50;;;1.00;;
54599;SDS011;40500;51.084;16.958;2023-05-28T10:38:20;1.30;;;1.00;;
54599;SDS011;40500;51.084;16.958;2023-05-28T10:40:48;2.80;;;0.90;;
54599;SDS011;40500;51.084;16.958;2023-05-28T10:46:12;1.30;;;1.00;;
54599;SDS011;40500;51.084;16.958;2023-05-28T10:49:04;3.00;;;1.00;;
54599;SDS011;40500;51.084;16.958;2023-05-28T10:51:51;6.80;;;1.20;;
54599;SDS011;40500;51.084;16.958;2023-05-28T10:54:24;1.60;;;0.70;;
54599;SDS011;40500;51.084;16.958;2023-05-28T10:57:11;1.40;;;0.90;;
54599;SDS011;40500;51.084;16.958;2023-05-28T10:59:43;1.40;;;0.90;;
54599;SDS011;40500;51.084;16.958;2023-05-28T11:02:12;2.70;;;1.20;;
54599;SDS011;40500;51.084;16.958;2023-05-28T11:04:42;1.60;;;1.20;;
54599;SDS011;40500;51.084;16.958;2023-05-28T11:07:14;1.70;;;0.90;;
54599;SDS011;40500;51.084;16.958;2023-05-28T11:09:46;1.70;;;1.10;;
54599;SDS011;40500;51.084;16.958;2023-05-28T11:12:15;7.10;;;1.30;;
54599;SDS011;40500;51.084;16.958;2023-05-28T11:14:42;1.40;;;0.90;;
54599;SDS011;40500;51.084;16.958;2023-05-28T11:17:11;2.20;;;1.00;;
54599;SDS011;40500;51.084;16.958;2023-05-28T11:19:39;0.90;;;0.90;;
54599;SDS011;40500;51.084;16.958;2023-05-28T11:22:08;1.30;;;1.00;;
54599;SDS011;40500;51.084;16.958;2023-05-28T11:24:50;1.10;;;0.90;;
54599;SDS011;40500;51.084;16.958;2023-05-28T11:27:21;2.70;;;0.90;;
54599;SDS011;40500;51.084;16.958;2023-05-28T11:29:49;2.50;;;1.10;;
54599;SDS011;40500;51.084;16.958;2023-05-28T11:32:20;2.30;;;0.70;;
54599;SDS011;40500;51.084;16.958;2023-05-28T11:34:48;2.50;;;1.10;;
54599;SDS011;40500;51.084;16.958;2023-05-28T11:37:22;3.20;;;0.80;;
54599;SDS011;40500;51.084;16.958;2023-05-28T11:39:55;3.00;;;1.10;;
54599;SDS011;40500;51.084;16.958;2023-05-28T11:42:23;3.00;;;0.90;;
54599;SDS011;40500;51.084;16.958;2023-05-28T11:44:52;1.10;;;0.90;;
54599;SDS011;40500;51.084;16.958;2023-05-28T11:47:20;2.50;;;1.10;;
54599;SDS011;40500;51.084;16.958;2023-05-28T11:49:48;2.70;;;1.00;;
54599;SDS011;40500;51.084;16.958;2023-05-28T11:52:17;2.20;;;1.00;;
54599;SDS011;40500;51.084;16.958;2023-05-28T11:54:46;1.40;;;0.90;;
54599;SDS011;40500;51.084;16.958;2023-05-28T11:57:20;8.00;;;0.90;;
54599;SDS011;40500;51.084;16.958;2023-05-28T11:59:57;5.30;;;1.10;;
54599;SDS011;40500;51.084;16.958;2023-05-28T12:02:27;3.30;;;1.20;;
54599;SDS011;40500;51.084;16.958;2023-05-28T12:04:56;2.50;;;0.70;;
54599;SDS011;40500;51.084;16.958;2023-05-28T12:07:28;0.80;;;0.80;;
54599;SDS011;40500;51.084;16.958;2023-05-28T12:10:03;2.60;;;0.90;;
54599;SDS011;40500;51.084;16.958;2023-05-28T12:12:32;3.00;;;1.10;;
54599;SDS011;40500;51.084;16.958;2023-05-28T12:15:01;2.30;;;1.00;;
54599;SDS011;40500;51.084;16.958;2023-05-28T12:17:33;6.80;;;1.40;;
54599;SDS011;40500;51.084;16.958;2023-05-28T12:20:06;3.00;;;1.00;;
54599;SDS011;40500;51.084;16.958;2023-05-28T12:22:59;1.40;;;1.00;;
54599;SDS011;40500;51.084;16.958;2023-05-28T12:25:28;3.00;;;1.00;;
54599;SDS011;40500;51.084;16.958;2023-05-28T12:28:04;1.30;;;0.80;;
54599;SDS011;40500;51.084;16.958;2023-05-28T12:30:32;2.30;;;1.00;;
54599;SDS011;40500;51.084;16.958;2023-05-28T12:33:00;3.60;;;0.90;;
54599;SDS011;40500;51.084;16.958;2023-05-28T12:35:29;2.60;;;0.90;;
54599;SDS011;40500;51.084;16.958;2023-05-28T12:38:00;2.50;;;0.90;;
54599;SDS011;40500;51.084;16.958;2023-05-28T12:40:28;3.60;;;1.00;;
54599;SDS011;40500;51.084;16.958;2023-05-28T12:42:56;2.40;;;1.10;;
54599;SDS011;40500;51.084;16.958;2023-05-28T12:45:24;3.70;;;0.90;;
54599;SDS011;40500;51.084;16.958;2023-05-28T12:47:52;3.80;;;1.00;;
54599;SDS011;40500;51.084;16.958;2023-05-28T12:50:20;3.30;;;1.00;;
54599;SDS011;40500;51.084;16.958;2023-05-28T12:52:49;1.80;;;0.90;;
54599;SDS011;40500;51.084;16.958;2023-05-28T12:55:17;5.60;;;1.10;;
54599;SDS011;40500;51.084;16.958;2023-05-28T12:57:46;1.80;;;0.90;;
54599;SDS011;40500;51.084;16.958;2023-05-28T13:00:15;0.80;;;0.80;;
54599;SDS011;40500;51.084;16.958;2023-05-28T13:02:43;2.60;;;1.20;;
54599;SDS011;40500;51.084;16.958;2023-05-28T13:05:11;2.40;;;1.30;;
54599;SDS011;40500;51.084;16.958;2023-05-28T13:07:38;3.60;;;1.20;;
54599;SDS011;40500;51.084;16.958;2023-05-28T13:10:08;3.30;;;1.20;;
54599;SDS011;40500;51.084;16.958;2023-05-28T13:12:40;1.60;;;1.00;;
54599;SDS011;40500;51.084;16.958;2023-05-28T13:15:09;3.20;;;1.10;;
54599;SDS011;40500;51.084;16.958;2023-05-28T13:17:37;1.80;;;1.00;;
54599;SDS011;40500;51.084;16.958;2023-05-28T13:20:06;3.50;;;1.00;;
54599;SDS011;40500;51.084;16.958;2023-05-28T13:22:36;2.50;;;1.10;;
54599;SDS011;40500;51.084;16.958;2023-05-28T13:25:05;1.60;;;1.00;;
54599;SDS011;40500;51.084;16.958;2023-05-28T13:27:34;4.50;;;1.50;;
54599;SDS011;40500;51.084;16.958;2023-05-28T13:30:02;1.90;;;1.10;;
54599;SDS011;40500;51.084;16.958;2023-05-28T13:32:30;1.50;;;1.00;;
54599;SDS011;40500;51.084;16.958;2023-05-28T13:34:58;1.10;;;1.00;;
54599;SDS011;40500;51.084;16.958;2023-05-28T13:37:26;3.00;;;1.00;;
54599;SDS011;40500;51.084;16.958;2023-05-28T13:39:54;2.40;;;1.00;;
54599;SDS011;40500;51.084;16.958;2023-05-28T13:42:23;1.50;;;0.90;;
54599;SDS011;40500;51.084;16.958;2023-05-28T13:44:52;4.60;;;1.10;;
54599;SDS011;40500;51.084;16.958;2023-05-28T13:47:20;3.70;;;0.90;;
54599;SDS011;40500;51.084;16.958;2023-05-28T13:49:48;2.20;;;0.90;;
54599;SDS011;40500;51.084;16.958;2023-05-28T13:52:17;2.70;;;1.10;;
54599;SDS011;40500;51.084;16.958;2023-05-28T13:54:44;4.20;;;1.20;;
54599;SDS011;40500;51.084;16.958;2023-05-28T13:57:12;2.10;;;1.10;;
54599;SDS011;40500;51.084;16.958;2023-05-28T13:59:41;2.70;;;1.30;;
54599;SDS011;40500;51.084;16.958;2023-05-28T14:02:08;2.20;;;1.20;;
54599;SDS011;40500;51.084;16.958;2023-05-28T14:04:36;4.50;;;1.40;;
54599;SDS011;40500;51.084;16.958;2023-05-28T14:07:04;2.50;;;1.10;;
54599;SDS011;40500;51.084;16.958;2023-05-28T14:09:32;2.00;;;1.00;;
54599;SDS011;40500;51.084;16.958;2023-05-28T14:12:00;1.40;;;1.00;;
54599;SDS011;40500;51.084;16.958;2023-05-28T14:14:31;1.90;;;1.10;;
54599;SDS011;40500;51.084;16.958;2023-05-28T14:16:58;2.40;;;0.80;;
54599;SDS011;40500;51.084;16.958;2023-05-28T14:19:26;2.00;;;0.90;;
54599;SDS011;40500;51.084;16.958;2023-05-28T14:21:54;1.20;;;1.00;;
54599;SDS011;40500;51.084;16.958;2023-05-28T14:24:21;2.70;;;1.00;;
54599;SDS011;40500;51.084;16.958;2023-05-28T14:26:49;1.70;;;1.00;;
54599;SDS011;40500;51.084;16.958;2023-05-28T14:29:17;2.90;;;0.90;;
54599;SDS011;40500;51.084;16.958;2023-05-28T14:31:44;5.40;;;1.10;;
54599;SDS011;40500;51.084;16.958;2023-05-28T14:34:12;3.20;;;1.20;;
54599;SDS011;40500;51.084;16.958;2023-05-28T14:36:40;1.60;;;0.90;;
54599;SDS011;40500;51.084;16.958;2023-05-28T14:39:07;3.90;;;1.00;;
54599;SDS011;40500;51.084;16.958;2023-05-28T14:41:35;3.00;;;1.00;;
54599;SDS011;40500;51.084;16.958;2023-05-28T14:44:03;3.30;;;1.20;;
54599;SDS011;40500;51.084;16.958;2023-05-28T14:46:30;3.30;;;0.80;;
54599;SDS011;40500;51.084;16.958;2023-05-28T14:48:58;2.90;;;0.90;;
54599;SDS011;40500;51.084;16.958;2023-05-28T14:51:26;5.10;;;1.10;;
54599;SDS011;40500;51.084;16.958;2023-05-28T14:53:54;2.00;;;0.80;;
54599;SDS011;40500;51.084;16.958;2023-05-28T14:56:22;6.40;;;0.90;;
54599;SDS011;40500;51.084;16.958;2023-05-28T14:58:49;2.40;;;0.90;;
54599;SDS011;40500;51.084;16.958;2023-05-28T15:01:17;2.10;;;0.90;;